sensor_id;sensor_type;location;lat;lon;timestamp;P1;durP1;ratioP1;P2;durP2;ratioP2
40815;SDS011;26535;48.788;9.214;2023-02-28T00:00:32;5.07;;;2.35;;
40815;SDS011;26535;48.788;9.214;2023-02-28T00:02:59;4.90;;;2.22;;
40815;SDS011;26535;48.788;9.214;2023-02-28T00:05:27;6.85;;;2.28;;
40815;SDS011;26535;48.788;9.214;2023-02-28T00:07:56;4.30;;;2.28;;
40815;SDS011;26535;48.788;9.214;2023-02-28T00:10:23;4.68;;;2.42;;
40815;SDS011;26535;48.788;9.214;2023-02-28T00:12:55;5.03;;;1.98;;
40815;SDS011;26535;48.788;9.214;2023-02-28T00:15:24;3.85;;;2.00;;
40815;SDS011;26535;48.788;9.214;2023-02-28T00:17:50;8.32;;;2.85;;
40815;SDS011;26535;48.788;9.214;2023-02-28T00:20:16;5.80;;;2.63;;
40815;SDS011;26535;48.788;9.214;2023-02-28T00:22:43;9.35;;;4.15;;
40815;SDS011;26535;48.788;9.214;2023-02-28T00:25:11;5.15;;;2.25;;
40815;SDS011;26535;48.788;9.214;2023-02-28T00:30:06;6.03;;;2.40;;
40815;SDS011;26535;48.788;9.214;2023-02-28T06:03:32;9.65;;;4.88;;
40815;SDS011;26535;48.788;9.214;2023-02-28T06:05:58;8.00;;;4.85;;
40815;SDS011;26535;48.788;9.214;2023-02-28T06:08:23;9.73;;;5.40;;
40815;SDS011;26535;48.788;9.214;2023-02-28T06:10:49;9.75;;;5.55;;
40815;SDS011;26535;48.788;9.214;2023-02-28T06:13:14;11.02;;;5.22;;
40815;SDS011;26535;48.788;9.214;2023-02-28T06:15:41;7.72;;;4.93;;
40815;SDS011;26535;48.788;9.214;2023-02-28T06:18:07;10.98;;;4.85;;
40815;SDS011;26535;48.788;9.214;2023-02-28T06:20:33;8.13;;;5.00;;
40815;SDS011;26535;48.788;9.214;2023-02-28T06:22:59;8.15;;;4.93;;
40815;SDS011;26535;48.788;9.214;2023-02-28T06:25:26;8.95;;;5.53;;
40815;SDS011;26535;48.788;9.214;2023-02-28T06:27:52;10.87;;;5.03;;
40815;SDS011;26535;48.788;9.214;2023-02-28T06:30:19;9.48;;;4.95;;
40815;SDS011;26535;48.788;9.214;2023-02-28T06:32:48;8.98;;;5.05;;
40815;SDS011;26535;48.788;9.214;2023-02-28T06:35:14;7.38;;;4.72;;
40815;SDS011;26535;48.788;9.214;2023-02-28T06:37:40;8.82;;;5.50;;
40815;SDS011;26535;48.788;9.214;2023-02-28T06:40:07;8.15;;;5.07;;
40815;SDS011;26535;48.788;9.214;2023-02-28T06:42:34;10.00;;;5.45;;
40815;SDS011;26535;48.788;9.214;2023-02-28T06:45:00;10.50;;;5.65;;
40815;SDS011;26535;48.788;9.214;2023-02-28T06:47:28;10.23;;;5.55;;
40815;SDS011;26535;48.788;9.214;2023-02-28T06:49:55;9.70;;;5.20;;
40815;SDS011;26535;48.788;9.214;2023-02-28T06:52:21;8.23;;;5.25;;
40815;SDS011;26535;48.788;9.214;2023-02-28T06:54:47;8.00;;;5.13;;
40815;SDS011;26535;48.788;9.214;2023-02-28T06:57:25;10.70;;;5.72;;
40815;SDS011;26535;48.788;9.214;2023-02-28T06:59:57;11.30;;;5.43;;
40815;SDS011;26535;48.788;9.214;2023-02-28T07:02:26;9.38;;;4.88;;
40815;SDS011;26535;48.788;9.214;2023-02-28T07:04:52;10.70;;;5.82;;
40815;SDS011;26535;48.788;9.214;2023-02-28T07:07:18;11.02;;;5.53;;
40815;SDS011;26535;48.788;9.214;2023-02-28T07:09:44;12.45;;;6.13;;
40815;SDS011;26535;48.788;9.214;2023-02-28T07:12:10;11.63;;;6.88;;
40815;SDS011;26535;48.788;9.214;2023-02-28T07:14:36;9.52;;;5.32;;
40815;SDS011;26535;48.788;9.214;2023-02-28T07:17:02;11.73;;;5.82;;
40815;SDS011;26535;48.788;9.214;2023-02-28T07:19:28;12.00;;;6.18;;
40815;SDS011;26535;48.788;9.214;2023-02-28T07:21:54;11.48;;;5.50;;
40815;SDS011;26535;48.788;9.214;2023-02-28T07:24:19;11.40;;;5.78;;
40815;SDS011;26535;48.788;9.214;2023-02-28T07:26:45;11.30;;;5.95;;
40815;SDS011;26535;48.788;9.214;2023-02-28T07:29:11;12.30;;;6.15;;
40815;SDS011;26535;48.788;9.214;2023-02-28T07:31:37;9.85;;;5.60;;
40815;SDS011;26535;48.788;9.214;2023-02-28T07:34:02;12.55;;;6.20;;
40815;SDS011;26535;48.788;9.214;2023-02-28T07:36:28;13.38;;;6.10;;
40815;SDS011;26535;48.788;9.214;2023-02-28T07:38:54;8.75;;;5.70;;
40815;SDS011;26535;48.788;9.214;2023-02-28T07:41:20;12.05;;;6.53;;
40815;SDS011;26535;48.788;9.214;2023-02-28T07:43:47;12.10;;;6.18;;
40815;SDS011;26535;48.788;9.214;2023-02-28T07:46:14;12.15;;;6.50;;
40815;SDS011;26535;48.788;9.214;2023-02-28T07:48:41;11.65;;;6.55;;
40815;SDS011;26535;48.788;9.214;2023-02-28T07:51:07;12.23;;;5.97;;
40815;SDS011;26535;48.788;9.214;2023-02-28T07:53:33;8.95;;;5.50;;
40815;SDS011;26535;48.788;9.214;2023-02-28T07:56:00;9.98;;;6.32;;
40815;SDS011;26535;48.788;9.214;2023-02-28T07:58:27;13.13;;;6.53;;
40815;SDS011;26535;48.788;9.214;2023-02-28T08:00:54;11.45;;;6.07;;
40815;SDS011;26535;48.788;9.214;2023-02-28T08:03:21;11.45;;;6.88;;
40815;SDS011;26535;48.788;9.214;2023-02-28T08:05:48;12.07;;;6.03;;
40815;SDS011;26535;48.788;9.214;2023-02-28T08:08:14;10.27;;;6.57;;
40815;SDS011;26535;48.788;9.214;2023-02-28T08:10:41;11.48;;;5.95;;
40815;SDS011;26535;48.788;9.214;2023-02-28T08:13:06;10.13;;;6.25;;
40815;SDS011;26535;48.788;9.214;2023-02-28T08:15:33;10.82;;;6.63;;
40815;SDS011;26535;48.788;9.214;2023-02-28T08:17:58;16.08;;;6.55;;
40815;SDS011;26535;48.788;9.214;2023-02-28T08:20:25;11.60;;;6.28;;
40815;SDS011;26535;48.788;9.214;2023-02-28T08:22:52;14.97;;;6.90;;
40815;SDS011;26535;48.788;9.214;2023-02-28T08:25:17;11.18;;;6.50;;
40815;SDS011;26535;48.788;9.214;2023-02-28T08:27:44;10.70;;;6.50;;
40815;SDS011;26535;48.788;9.214;2023-02-28T08:30:10;9.90;;;6.32;;
40815;SDS011;26535;48.788;9.214;2023-02-28T08:32:37;11.15;;;6.07;;
40815;SDS011;26535;48.788;9.214;2023-02-28T08:35:03;10.20;;;6.13;;
40815;SDS011;26535;48.788;9.214;2023-02-28T08:37:29;14.18;;;6.20;;
40815;SDS011;26535;48.788;9.214;2023-02-28T08:39:54;11.60;;;7.10;;
40815;SDS011;26535;48.788;9.214;2023-02-28T08:42:20;10.85;;;6.47;;
40815;SDS011;26535;48.788;9.214;2023-02-28T08:44:46;11.18;;;6.43;;
40815;SDS011;26535;48.788;9.214;2023-02-28T08:47:12;12.90;;;6.72;;
40815;SDS011;26535;48.788;9.214;2023-02-28T08:49:37;11.95;;;6.65;;
40815;SDS011;26535;48.788;9.214;2023-02-28T08:52:03;11.90;;;6.80;;
40815;SDS011;26535;48.788;9.214;2023-02-28T08:54:29;10.15;;;6.40;;
40815;SDS011;26535;48.788;9.214;2023-02-28T08:56:56;11.23;;;6.40;;
40815;SDS011;26535;48.788;9.214;2023-02-28T08:59:22;13.82;;;6.95;;
40815;SDS011;26535;48.788;9.214;2023-02-28T09:01:48;11.77;;;6.63;;
40815;SDS011;26535;48.788;9.214;2023-02-28T09:04:14;13.45;;;6.32;;
40815;SDS011;26535;48.788;9.214;2023-02-28T09:06:39;10.95;;;6.75;;
40815;SDS011;26535;48.788;9.214;2023-02-28T09:09:05;11.15;;;6.43;;
40815;SDS011;26535;48.788;9.214;2023-02-28T09:11:33;10.00;;;6.70;;
40815;SDS011;26535;48.788;9.214;2023-02-28T09:14:00;14.50;;;6.72;;
40815;SDS011;26535;48.788;9.214;2023-02-28T09:16:28;12.75;;;6.68;;
40815;SDS011;26535;48.788;9.214;2023-02-28T09:18:55;8.43;;;5.40;;
40815;SDS011;26535;48.788;9.214;2023-02-28T09:21:21;12.95;;;7.10;;
40815;SDS011;26535;48.788;9.214;2023-02-28T09:23:49;11.82;;;6.78;;
40815;SDS011;26535;48.788;9.214;2023-02-28T09:26:16;11.05;;;6.70;;
40815;SDS011;26535;48.788;9.214;2023-02-28T09:28:43;12.80;;;6.78;;
40815;SDS011;26535;48.788;9.214;2023-02-28T09:31:22;12.18;;;6.88;;
40815;SDS011;26535;48.788;9.214;2023-02-28T09:33:51;11.07;;;6.97;;
40815;SDS011;26535;48.788;9.214;2023-02-28T09:36:18;11.63;;;6.60;;
40815;SDS011;26535;48.788;9.214;2023-02-28T09:38:44;10.73;;;6.20;;
40815;SDS011;26535;48.788;9.214;2023-02-28T09:41:32;12.07;;;6.63;;
40815;SDS011;26535;48.788;9.214;2023-02-28T09:44:13;13.75;;;7.38;;
40815;SDS011;26535;48.788;9.214;2023-02-28T09:46:48;10.80;;;6.35;;
40815;SDS011;26535;48.788;9.214;2023-02-28T09:49:19;12.48;;;7.20;;
40815;SDS011;26535;48.788;9.214;2023-02-28T09:51:55;13.50;;;7.40;;
40815;SDS011;26535;48.788;9.214;2023-02-28T09:54:26;11.98;;;6.80;;
40815;SDS011;26535;48.788;9.214;2023-02-28T09:57:04;11.20;;;6.38;;
40815;SDS011;26535;48.788;9.214;2023-02-28T10:05:08;11.93;;;7.07;;
40815;SDS011;26535;48.788;9.214;2023-02-28T10:10:26;10.85;;;7.00;;
40815;SDS011;26535;48.788;9.214;2023-02-28T10:12:56;10.30;;;6.53;;
40815;SDS011;26535;48.788;9.214;2023-02-28T10:15:25;13.35;;;7.38;;
40815;SDS011;26535;48.788;9.214;2023-02-28T10:17:56;17.40;;;8.32;;
40815;SDS011;26535;48.788;9.214;2023-02-28T10:20:28;22.35;;;10.13;;
40815;SDS011;26535;48.788;9.214;2023-02-28T10:25:33;11.02;;;6.72;;
40815;SDS011;26535;48.788;9.214;2023-02-28T10:28:01;12.35;;;7.47;;
40815;SDS011;26535;48.788;9.214;2023-02-28T10:30:38;14.55;;;7.97;;
40815;SDS011;26535;48.788;9.214;2023-02-28T10:33:10;14.73;;;8.35;;
40815;SDS011;26535;48.788;9.214;2023-02-28T10:35:44;11.80;;;7.85;;
40815;SDS011;26535;48.788;9.214;2023-02-28T10:38:14;11.15;;;7.13;;
40815;SDS011;26535;48.788;9.214;2023-02-28T10:40:42;10.20;;;6.88;;
40815;SDS011;26535;48.788;9.214;2023-02-28T10:45:56;12.90;;;6.63;;
40815;SDS011;26535;48.788;9.214;2023-02-28T10:48:43;14.40;;;7.32;;
40815;SDS011;26535;48.788;9.214;2023-02-28T10:51:11;11.82;;;6.80;;
40815;SDS011;26535;48.788;9.214;2023-02-28T10:53:45;12.80;;;6.85;;
40815;SDS011;26535;48.788;9.214;2023-02-28T10:56:20;12.37;;;7.53;;
40815;SDS011;26535;48.788;9.214;2023-02-28T11:01:38;15.15;;;7.32;;
40815;SDS011;26535;48.788;9.214;2023-02-28T11:04:48;10.45;;;7.05;;
40815;SDS011;26535;48.788;9.214;2023-02-28T11:07:02;11.13;;;7.07;;
40815;SDS011;26535;48.788;9.214;2023-02-28T11:09:34;12.10;;;7.25;;
40815;SDS011;26535;48.788;9.214;2023-02-28T11:12:04;9.55;;;7.00;;
40815;SDS011;26535;48.788;9.214;2023-02-28T11:14:53;10.05;;;6.97;;
40815;SDS011;26535;48.788;9.214;2023-02-28T11:17:28;12.18;;;6.97;;
40815;SDS011;26535;48.788;9.214;2023-02-28T11:19:57;9.63;;;6.60;;
40815;SDS011;26535;48.788;9.214;2023-02-28T11:22:35;10.05;;;6.65;;
40815;SDS011;26535;48.788;9.214;2023-02-28T11:25:25;8.05;;;6.35;;
40815;SDS011;26535;48.788;9.214;2023-02-28T11:28:01;7.57;;;6.07;;
40815;SDS011;26535;48.788;9.214;2023-02-28T11:32:57;8.48;;;6.15;;
40815;SDS011;26535;48.788;9.214;2023-02-28T11:37:54;11.43;;;6.78;;
40815;SDS011;26535;48.788;9.214;2023-02-28T11:49:02;8.07;;;6.30;;
40815;SDS011;26535;48.788;9.214;2023-02-28T12:10:35;30.45;;;17.05;;
40815;SDS011;26535;48.788;9.214;2023-02-28T12:13:23;8.93;;;6.45;;
40815;SDS011;26535;48.788;9.214;2023-02-28T12:18:44;8.30;;;6.05;;
40815;SDS011;26535;48.788;9.214;2023-02-28T12:21:52;8.43;;;5.78;;
40815;SDS011;26535;48.788;9.214;2023-02-28T12:24:34;7.20;;;5.85;;
40815;SDS011;26535;48.788;9.214;2023-02-28T12:27:20;9.18;;;6.22;;
40815;SDS011;26535;48.788;9.214;2023-02-28T12:30:32;8.43;;;6.25;;
40815;SDS011;26535;48.788;9.214;2023-02-28T12:32:42;6.78;;;5.28;;
40815;SDS011;26535;48.788;9.214;2023-02-28T12:35:19;9.38;;;6.97;;
40815;SDS011;26535;48.788;9.214;2023-02-28T12:37:59;9.43;;;6.30;;
40815;SDS011;26535;48.788;9.214;2023-02-28T12:40:41;9.10;;;6.20;;
40815;SDS011;26535;48.788;9.214;2023-02-28T12:43:09;8.02;;;6.45;;
40815;SDS011;26535;48.788;9.214;2023-02-28T12:45:46;7.53;;;5.80;;
40815;SDS011;26535;48.788;9.214;2023-02-28T12:48:27;8.30;;;5.75;;
40815;SDS011;26535;48.788;9.214;2023-02-28T12:51:04;8.52;;;5.68;;
40815;SDS011;26535;48.788;9.214;2023-02-28T12:58:55;8.80;;;6.03;;
40815;SDS011;26535;48.788;9.214;2023-02-28T13:01:42;7.35;;;5.53;;
40815;SDS011;26535;48.788;9.214;2023-02-28T13:04:32;7.05;;;5.55;;
40815;SDS011;26535;48.788;9.214;2023-02-28T13:10:14;7.25;;;5.20;;
40815;SDS011;26535;48.788;9.214;2023-02-28T13:12:47;8.65;;;5.82;;
40815;SDS011;26535;48.788;9.214;2023-02-28T13:15:26;8.70;;;5.70;;
40815;SDS011;26535;48.788;9.214;2023-02-28T13:17:58;12.80;;;6.80;;
40815;SDS011;26535;48.788;9.214;2023-02-28T13:20:25;8.05;;;5.47;;
40815;SDS011;26535;48.788;9.214;2023-02-28T13:22:54;8.68;;;5.80;;
40815;SDS011;26535;48.788;9.214;2023-02-28T13:27:50;8.57;;;6.10;;
40815;SDS011;26535;48.788;9.214;2023-02-28T13:38:33;6.70;;;5.88;;
40815;SDS011;26535;48.788;9.214;2023-02-28T13:51:55;8.77;;;6.07;;
40815;SDS011;26535;48.788;9.214;2023-02-28T13:59:50;8.18;;;6.00;;
40815;SDS011;26535;48.788;9.214;2023-02-28T14:05:27;8.52;;;5.72;;
40815;SDS011;26535;48.788;9.214;2023-02-28T14:07:58;6.63;;;5.57;;
40815;SDS011;26535;48.788;9.214;2023-02-28T14:10:46;8.88;;;5.60;;
40815;SDS011;26535;48.788;9.214;2023-02-28T14:13:42;10.48;;;5.53;;
40815;SDS011;26535;48.788;9.214;2023-02-28T14:16:15;8.45;;;5.60;;
40815;SDS011;26535;48.788;9.214;2023-02-28T14:18:50;7.50;;;4.82;;
40815;SDS011;26535;48.788;9.214;2023-02-28T14:21:31;8.15;;;5.40;;
40815;SDS011;26535;48.788;9.214;2023-02-28T14:27:22;8.02;;;5.68;;
40815;SDS011;26535;48.788;9.214;2023-02-28T14:30:02;7.07;;;5.55;;
40815;SDS011;26535;48.788;9.214;2023-02-28T14:37:42;7.82;;;5.15;;
40815;SDS011;26535;48.788;9.214;2023-02-28T14:40:16;7.88;;;5.35;;
40815;SDS011;26535;48.788;9.214;2023-02-28T14:42:54;8.55;;;5.32;;
40815;SDS011;26535;48.788;9.214;2023-02-28T14:45:22;7.38;;;5.53;;
40815;SDS011;26535;48.788;9.214;2023-02-28T14:47:51;6.80;;;4.93;;
40815;SDS011;26535;48.788;9.214;2023-02-28T14:50:21;7.03;;;5.10;;
40815;SDS011;26535;48.788;9.214;2023-02-28T14:52:51;5.60;;;4.30;;
40815;SDS011;26535;48.788;9.214;2023-02-28T14:55:19;6.72;;;5.75;;
40815;SDS011;26535;48.788;9.214;2023-02-28T14:58:05;8.00;;;4.97;;
40815;SDS011;26535;48.788;9.214;2023-02-28T15:00:36;7.22;;;5.40;;
40815;SDS011;26535;48.788;9.214;2023-02-28T15:03:18;11.13;;;5.55;;
40815;SDS011;26535;48.788;9.214;2023-02-28T15:05:54;7.90;;;5.50;;
40815;SDS011;26535;48.788;9.214;2023-02-28T15:08:24;8.35;;;5.78;;
40815;SDS011;26535;48.788;9.214;2023-02-28T15:10:57;8.27;;;5.93;;
40815;SDS011;26535;48.788;9.214;2023-02-28T15:19:24;7.22;;;5.85;;
40815;SDS011;26535;48.788;9.214;2023-02-28T15:22:03;6.90;;;5.65;;
40815;SDS011;26535;48.788;9.214;2023-02-28T15:24:42;8.55;;;5.85;;
40815;SDS011;26535;48.788;9.214;2023-02-28T15:27:21;9.90;;;6.28;;
40815;SDS011;26535;48.788;9.214;2023-02-28T15:29:58;10.07;;;6.30;;
40815;SDS011;26535;48.788;9.214;2023-02-28T15:34:56;10.85;;;6.88;;
40815;SDS011;26535;48.788;9.214;2023-02-28T15:39:52;9.13;;;6.15;;
40815;SDS011;26535;48.788;9.214;2023-02-28T15:42:20;8.82;;;6.20;;
40815;SDS011;26535;48.788;9.214;2023-02-28T15:44:47;8.07;;;6.32;;
40815;SDS011;26535;48.788;9.214;2023-02-28T15:47:26;9.80;;;6.55;;
40815;SDS011;26535;48.788;9.214;2023-02-28T15:52:20;10.30;;;6.20;;
40815;SDS011;26535;48.788;9.214;2023-02-28T15:54:50;7.53;;;5.90;;
40815;SDS011;26535;48.788;9.214;2023-02-28T15:57:24;10.65;;;6.50;;
40815;SDS011;26535;48.788;9.214;2023-02-28T15:59:54;9.27;;;6.53;;
40815;SDS011;26535;48.788;9.214;2023-02-28T16:02:27;8.70;;;6.68;;
40815;SDS011;26535;48.788;9.214;2023-02-28T16:07:40;8.02;;;5.72;;
40815;SDS011;26535;48.788;9.214;2023-02-28T16:10:08;9.77;;;7.13;;
40815;SDS011;26535;48.788;9.214;2023-02-28T16:12:36;8.23;;;6.35;;
40815;SDS011;26535;48.788;9.214;2023-02-28T16:15:08;9.68;;;6.88;;
40815;SDS011;26535;48.788;9.214;2023-02-28T16:17:43;8.85;;;6.20;;
40815;SDS011;26535;48.788;9.214;2023-02-28T16:20:21;10.27;;;7.28;;
40815;SDS011;26535;48.788;9.214;2023-02-28T16:25:29;11.13;;;6.90;;
40815;SDS011;26535;48.788;9.214;2023-02-28T16:28:02;11.95;;;7.00;;
40815;SDS011;26535;48.788;9.214;2023-02-28T16:30:28;10.68;;;7.53;;
40815;SDS011;26535;48.788;9.214;2023-02-28T16:32:56;8.68;;;6.40;;
40815;SDS011;26535;48.788;9.214;2023-02-28T16:35:22;8.90;;;6.35;;
40815;SDS011;26535;48.788;9.214;2023-02-28T16:37:52;9.55;;;6.43;;
40815;SDS011;26535;48.788;9.214;2023-02-28T16:40:20;10.55;;;7.50;;
40815;SDS011;26535;48.788;9.214;2023-02-28T16:42:52;13.32;;;7.07;;
40815;SDS011;26535;48.788;9.214;2023-02-28T16:45:22;11.32;;;7.40;;
40815;SDS011;26535;48.788;9.214;2023-02-28T16:47:50;11.73;;;7.47;;
40815;SDS011;26535;48.788;9.214;2023-02-28T16:50:26;10.85;;;7.32;;
40815;SDS011;26535;48.788;9.214;2023-02-28T16:52:53;13.97;;;7.40;;
40815;SDS011;26535;48.788;9.214;2023-02-28T16:55:20;12.50;;;7.32;;
40815;SDS011;26535;48.788;9.214;2023-02-28T16:57:53;10.27;;;7.28;;
40815;SDS011;26535;48.788;9.214;2023-02-28T17:00:22;13.20;;;7.60;;
40815;SDS011;26535;48.788;9.214;2023-02-28T17:02:48;11.45;;;7.45;;
40815;SDS011;26535;48.788;9.214;2023-02-28T17:05:14;10.73;;;7.30;;
40815;SDS011;26535;48.788;9.214;2023-02-28T17:07:46;10.75;;;7.55;;
40815;SDS011;26535;48.788;9.214;2023-02-28T17:10:20;13.88;;;7.93;;
40815;SDS011;26535;48.788;9.214;2023-02-28T17:12:48;13.35;;;7.97;;
40815;SDS011;26535;48.788;9.214;2023-02-28T17:15:15;11.20;;;7.47;;
40815;SDS011;26535;48.788;9.214;2023-02-28T17:17:42;12.33;;;7.93;;
40815;SDS011;26535;48.788;9.214;2023-02-28T17:20:13;13.20;;;7.97;;
40815;SDS011;26535;48.788;9.214;2023-02-28T17:22:40;10.40;;;6.93;;
40815;SDS011;26535;48.788;9.214;2023-02-28T17:25:07;12.75;;;8.45;;
40815;SDS011;26535;48.788;9.214;2023-02-28T17:27:35;12.40;;;7.72;;
40815;SDS011;26535;48.788;9.214;2023-02-28T17:30:01;14.93;;;8.57;;
40815;SDS011;26535;48.788;9.214;2023-02-28T17:32:29;12.20;;;8.30;;
40815;SDS011;26535;48.788;9.214;2023-02-28T17:34:55;13.25;;;8.20;;
40815;SDS011;26535;48.788;9.214;2023-02-28T17:37:41;11.23;;;7.80;;
40815;SDS011;26535;48.788;9.214;2023-02-28T17:40:12;15.57;;;8.27;;
40815;SDS011;26535;48.788;9.214;2023-02-28T17:42:44;13.57;;;7.80;;
40815;SDS011;26535;48.788;9.214;2023-02-28T17:45:14;13.25;;;8.02;;
40815;SDS011;26535;48.788;9.214;2023-02-28T17:47:40;15.52;;;8.40;;
40815;SDS011;26535;48.788;9.214;2023-02-28T17:50:14;12.23;;;7.85;;
40815;SDS011;26535;48.788;9.214;2023-02-28T17:52:42;14.30;;;8.65;;
40815;SDS011;26535;48.788;9.214;2023-02-28T17:55:08;13.23;;;8.52;;
40815;SDS011;26535;48.788;9.214;2023-02-28T17:57:34;13.80;;;8.90;;
40815;SDS011;26535;48.788;9.214;2023-02-28T18:00:00;14.02;;;7.97;;
40815;SDS011;26535;48.788;9.214;2023-02-28T18:02:36;17.50;;;9.27;;
40815;SDS011;26535;48.788;9.214;2023-02-28T18:05:02;15.65;;;8.65;;
40815;SDS011;26535;48.788;9.214;2023-02-28T18:07:29;14.90;;;9.05;;
40815;SDS011;26535;48.788;9.214;2023-02-28T18:09:55;14.85;;;8.88;;
40815;SDS011;26535;48.788;9.214;2023-02-28T18:12:22;16.38;;;10.07;;
40815;SDS011;26535;48.788;9.214;2023-02-28T18:14:48;17.33;;;9.55;;
40815;SDS011;26535;48.788;9.214;2023-02-28T18:17:15;17.92;;;9.43;;
40815;SDS011;26535;48.788;9.214;2023-02-28T18:19:53;16.58;;;10.50;;
40815;SDS011;26535;48.788;9.214;2023-02-28T18:25:09;18.40;;;10.18;;
40815;SDS011;26535;48.788;9.214;2023-02-28T18:27:52;18.65;;;10.02;;
40815;SDS011;26535;48.788;9.214;2023-02-28T18:30:19;21.45;;;10.98;;
40815;SDS011;26535;48.788;9.214;2023-02-28T18:32:49;20.85;;;10.23;;
40815;SDS011;26535;48.788;9.214;2023-02-28T18:35:15;19.38;;;10.70;;
40815;SDS011;26535;48.788;9.214;2023-02-28T18:37:48;17.92;;;10.10;;
40815;SDS011;26535;48.788;9.214;2023-02-28T18:40:13;17.70;;;10.68;;
40815;SDS011;26535;48.788;9.214;2023-02-28T18:43:11;20.40;;;11.10;;
40815;SDS011;26535;48.788;9.214;2023-02-28T18:46:14;18.85;;;11.38;;
40815;SDS011;26535;48.788;9.214;2023-02-28T18:48:55;18.08;;;11.10;;
40815;SDS011;26535;48.788;9.214;2023-02-28T18:51:28;17.80;;;10.35;;
40815;SDS011;26535;48.788;9.214;2023-02-28T18:53:57;17.77;;;10.45;;
40815;SDS011;26535;48.788;9.214;2023-02-28T18:56:24;17.48;;;10.70;;
40815;SDS011;26535;48.788;9.214;2023-02-28T18:58:51;18.50;;;11.20;;
40815;SDS011;26535;48.788;9.214;2023-02-28T19:01:18;15.70;;;10.15;;
40815;SDS011;26535;48.788;9.214;2023-02-28T19:03:54;16.92;;;10.65;;
40815;SDS011;26535;48.788;9.214;2023-02-28T19:06:20;19.50;;;10.88;;
40815;SDS011;26535;48.788;9.214;2023-02-28T19:08:51;20.35;;;10.85;;
40815;SDS011;26535;48.788;9.214;2023-02-28T19:11:24;17.08;;;10.68;;
40815;SDS011;26535;48.788;9.214;2023-02-28T19:13:50;18.38;;;11.18;;
40815;SDS011;26535;48.788;9.214;2023-02-28T19:16:17;17.65;;;11.05;;
40815;SDS011;26535;48.788;9.214;2023-02-28T19:18:44;18.30;;;11.25;;
40815;SDS011;26535;48.788;9.214;2023-02-28T19:21:11;17.00;;;10.88;;
40815;SDS011;26535;48.788;9.214;2023-02-28T19:23:38;19.05;;;11.90;;
40815;SDS011;26535;48.788;9.214;2023-02-28T19:26:08;20.20;;;11.07;;
40815;SDS011;26535;48.788;9.214;2023-02-28T19:28:35;20.63;;;12.18;;
40815;SDS011;26535;48.788;9.214;2023-02-28T19:31:01;20.67;;;11.55;;
40815;SDS011;26535;48.788;9.214;2023-02-28T19:33:27;22.75;;;13.10;;
40815;SDS011;26535;48.788;9.214;2023-02-28T19:35:53;22.80;;;12.23;;
40815;SDS011;26535;48.788;9.214;2023-02-28T19:38:19;22.15;;;13.38;;
40815;SDS011;26535;48.788;9.214;2023-02-28T19:40:48;24.40;;;13.52;;
40815;SDS011;26535;48.788;9.214;2023-02-28T19:43:14;24.90;;;15.43;;
40815;SDS011;26535;48.788;9.214;2023-02-28T19:45:39;27.48;;;16.58;;
40815;SDS011;26535;48.788;9.214;2023-02-28T19:48:05;31.65;;;18.05;;
40815;SDS011;26535;48.788;9.214;2023-02-28T19:50:36;33.10;;;18.23;;
40815;SDS011;26535;48.788;9.214;2023-02-28T19:53:02;26.98;;;16.23;;
40815;SDS011;26535;48.788;9.214;2023-02-28T19:55:28;35.30;;;20.40;;
40815;SDS011;26535;48.788;9.214;2023-02-28T19:57:54;38.03;;;21.10;;
40815;SDS011;26535;48.788;9.214;2023-02-28T20:00:20;29.42;;;17.08;;
40815;SDS011;26535;48.788;9.214;2023-02-28T20:02:46;28.83;;;16.10;;
40815;SDS011;26535;48.788;9.214;2023-02-28T20:05:11;27.35;;;15.40;;
40815;SDS011;26535;48.788;9.214;2023-02-28T20:07:37;29.67;;;16.38;;
40815;SDS011;26535;48.788;9.214;2023-02-28T20:10:03;30.90;;;16.52;;
40815;SDS011;26535;48.788;9.214;2023-02-28T20:12:29;26.50;;;16.02;;
40815;SDS011;26535;48.788;9.214;2023-02-28T20:14:55;26.55;;;15.35;;
40815;SDS011;26535;48.788;9.214;2023-02-28T20:17:21;26.65;;;15.95;;
40815;SDS011;26535;48.788;9.214;2023-02-28T20:19:48;29.88;;;16.02;;
40815;SDS011;26535;48.788;9.214;2023-02-28T20:22:14;30.85;;;15.90;;
40815;SDS011;26535;48.788;9.214;2023-02-28T20:24:40;26.10;;;14.60;;
40815;SDS011;26535;48.788;9.214;2023-02-28T20:27:06;24.42;;;13.70;;
40815;SDS011;26535;48.788;9.214;2023-02-28T20:29:32;24.52;;;14.40;;
40815;SDS011;26535;48.788;9.214;2023-02-28T20:31:58;22.40;;;13.57;;
40815;SDS011;26535;48.788;9.214;2023-02-28T20:34:24;24.02;;;13.95;;
40815;SDS011;26535;48.788;9.214;2023-02-28T20:36:51;21.98;;;13.38;;
40815;SDS011;26535;48.788;9.214;2023-02-28T20:39:17;21.15;;;12.85;;
40815;SDS011;26535;48.788;9.214;2023-02-28T20:41:42;23.17;;;13.07;;
40815;SDS011;26535;48.788;9.214;2023-02-28T20:44:10;23.55;;;14.55;;
40815;SDS011;26535;48.788;9.214;2023-02-28T20:46:37;19.83;;;13.00;;
40815;SDS011;26535;48.788;9.214;2023-02-28T20:49:03;21.77;;;13.05;;
40815;SDS011;26535;48.788;9.214;2023-02-28T20:51:29;23.92;;;13.98;;
40815;SDS011;26535;48.788;9.214;2023-02-28T20:53:55;24.20;;;13.75;;
40815;SDS011;26535;48.788;9.214;2023-02-28T20:56:21;23.48;;;14.23;;
40815;SDS011;26535;48.788;9.214;2023-02-28T20:58:52;24.58;;;14.27;;
40815;SDS011;26535;48.788;9.214;2023-02-28T21:01:21;20.80;;;13.73;;
40815;SDS011;26535;48.788;9.214;2023-02-28T21:03:52;26.30;;;15.48;;
40815;SDS011;26535;48.788;9.214;2023-02-28T21:11:22;25.33;;;13.32;;
40815;SDS011;26535;48.788;9.214;2023-02-28T21:13:50;24.73;;;14.80;;
40815;SDS011;26535;48.788;9.214;2023-02-28T21:16:18;25.30;;;14.07;;
40815;SDS011;26535;48.788;9.214;2023-02-28T21:18:46;23.48;;;13.63;;
40815;SDS011;26535;48.788;9.214;2023-02-28T21:21:14;23.23;;;13.75;;
40815;SDS011;26535;48.788;9.214;2023-02-28T21:26:09;24.50;;;13.82;;
40815;SDS011;26535;48.788;9.214;2023-02-28T21:28:37;22.42;;;12.75;;
40815;SDS011;26535;48.788;9.214;2023-02-28T21:31:08;22.75;;;13.60;;
40815;SDS011;26535;48.788;9.214;2023-02-28T21:33:35;23.58;;;13.73;;
40815;SDS011;26535;48.788;9.214;2023-02-28T21:36:02;21.25;;;12.43;;
40815;SDS011;26535;48.788;9.214;2023-02-28T21:38:34;20.83;;;12.20;;
40815;SDS011;26535;48.788;9.214;2023-02-28T21:41:08;25.57;;;13.27;;
40815;SDS011;26535;48.788;9.214;2023-02-28T21:43:34;20.98;;;12.73;;
40815;SDS011;26535;48.788;9.214;2023-02-28T21:46:01;24.83;;;13.32;;
40815;SDS011;26535;48.788;9.214;2023-02-28T21:48:28;22.42;;;13.23;;
40815;SDS011;26535;48.788;9.214;2023-02-28T21:50:58;25.67;;;14.38;;
40815;SDS011;26535;48.788;9.214;2023-02-28T21:53:35;28.58;;;15.50;;
40815;SDS011;26535;48.788;9.214;2023-02-28T21:56:03;25.83;;;14.93;;
40815;SDS011;26535;48.788;9.214;2023-02-28T21:58:31;30.60;;;15.98;;
40815;SDS011;26535;48.788;9.214;2023-02-28T22:01:04;26.60;;;14.93;;
40815;SDS011;26535;48.788;9.214;2023-02-28T22:03:29;25.73;;;14.25;;
40815;SDS011;26535;48.788;9.214;2023-02-28T22:05:55;26.95;;;14.32;;
40815;SDS011;26535;48.788;9.214;2023-02-28T22:08:21;25.98;;;14.45;;
40815;SDS011;26535;48.788;9.214;2023-02-28T22:10:47;24.63;;;13.10;;
40815;SDS011;26535;48.788;9.214;2023-02-28T22:13:13;25.88;;;13.93;;
40815;SDS011;26535;48.788;9.214;2023-02-28T22:15:39;22.75;;;13.98;;
40815;SDS011;26535;48.788;9.214;2023-02-28T22:18:04;25.45;;;14.02;;
40815;SDS011;26535;48.788;9.214;2023-02-28T22:20:31;26.27;;;13.70;;
40815;SDS011;26535;48.788;9.214;2023-02-28T22:22:57;23.17;;;12.98;;
40815;SDS011;26535;48.788;9.214;2023-02-28T22:25:26;21.83;;;13.30;;
40815;SDS011;26535;48.788;9.214;2023-02-28T22:27:51;24.48;;;14.13;;
40815;SDS011;26535;48.788;9.214;2023-02-28T22:30:17;22.02;;;12.75;;
40815;SDS011;26535;48.788;9.214;2023-02-28T22:32:43;24.02;;;13.48;;